Terminal Aerodrome Forecast
Issued by NWS

Home | Current Version | Previous Version | Text Only | Print | Product List | Glossary On
Versions: 1 2 3 4 5 6 7 8 9 10 11 12 13 14 15 16 17 18 19 20 21
000
FTUS45 KVEF 302140 AAA
TAFVGT
TAF AMD
KVGT 302140Z 3022/0118 33011KT P6SM BKN060 BKN100
      TEMPO 3023/0102 5SM SHRA BR FEW020 BKN030 OVC050
     FM010200 02008KT P6SM VCSH BKN060 BKN120
     FM010900 35012G20KT P6SM SCT100 BKN250=

USA.gov is the U.S. government's official web portal to all federal, state and local government web resources and services.